Time;durP1;ratioP1;P1;durP2;ratioP2;P2;SDS_P1;SDS_P2;PMS_P1;PMS_P2;Temp;Humidity;BMP_temperature;BMP_pressure;BME280_temperature;BME280_humidity;BME280_pressure;Samples;Min_cycle;Max_cycle;Signal;HPM_P1;HPM_P2
2022/06/17 00:02:01;;;;;;;7.00;4.32;;;16.40;99.90;;;;;;4937276;28;20058;-80
2022/06/17 00:04:29;;;;;;;4.47;4.13;;;16.40;99.90;;;;;;4938094;28;20487;-80
2022/06/17 00:07:03;;;;;;;8.10;3.92;;;16.40;99.90;;;;;;4938155;28;20366;-80
2022/06/17 00:09:35;;;;;;;5.47;4.55;;;16.40;99.90;;;;;;4959438;28;20476;-79
2022/06/17 00:12:04;;;;;;;9.32;4.05;;;16.30;99.90;;;;;;4952359;28;20047;-80
2022/06/17 00:15:11;;;;;;;4.75;4.20;;;16.40;99.90;;;;;;4953410;28;20038;-79
2022/06/17 00:17:22;;;;;;;4.97;4.57;;;16.30;99.90;;;;;;4970772;28;20058;-80
2022/06/17 00:19:50;;;;;;;4.57;4.28;;;16.30;99.90;;;;;;4956185;28;20047;-80
2022/06/17 00:22:18;;;;;;;4.50;4.10;;;16.30;99.90;;;;;;4973701;28;20031;-80
2022/06/17 00:24:46;;;;;;;4.40;3.63;;;16.20;99.90;;;;;;4957004;28;20058;-80
2022/06/17 00:27:14;;;;;;;4.65;4.35;;;16.20;99.90;;;;;;4973208;28;20047;-80
2022/06/17 00:29:42;;;;;;;4.35;3.85;;;16.20;99.90;;;;;;4972743;28;20043;-80
2022/06/17 00:32:10;;;;;;;4.72;4.30;;;16.30;99.90;;;;;;4940242;28;20787;-80
2022/06/17 00:34:38;;;;;;;4.60;4.20;;;16.30;99.90;;;;;;4955093;28;20400;-80
2022/06/17 00:37:12;;;;;;;6.35;4.47;;;16.20;99.90;;;;;;4956260;28;20655;-81
2022/06/17 00:39:41;;;;;;;4.97;4.55;;;16.10;99.90;;;;;;4970960;28;20046;-80
2022/06/17 00:42:13;;;;;;;4.50;3.55;;;16.10;99.90;;;;;;4971569;28;20051;-80
2022/06/17 00:44:53;;;;;;;5.82;5.07;;;16.10;99.90;;;;;;4972941;28;20382;-80
2022/06/17 00:47:40;;;;;;;10.27;3.95;;;16.10;99.90;;;;;;4956076;28;20077;-80
2022/06/17 00:50:19;;;;;;;5.53;5.13;;;16.20;99.90;;;;;;4964982;28;20046;-80
2022/06/17 00:52:58;;;;;;;4.50;4.10;;;16.10;99.90;;;;;;4956453;28;20405;-80
2022/06/17 00:55:39;;;;;;;4.43;4.07;;;15.90;99.90;;;;;;4956158;28;20062;-80
2022/06/17 00:58:16;;;;;;;5.20;4.85;;;15.80;99.90;;;;;;4935833;29;20063;-79
2022/06/17 01:00:45;;;;;;;7.45;4.55;;;15.70;99.90;;;;;;4983603;28;20042;-80
2022/06/17 01:03:19;;;;;;;7.00;5.10;;;15.60;99.90;;;;;;4981379;28;20043;-80
2022/06/17 01:05:52;;;;;;;6.80;5.57;;;15.40;99.90;;;;;;4987923;28;20070;-80
2022/06/17 01:11:27;;;;;;;5.50;5.00;;;15.30;99.90;;;;;;4954889;28;20051;-80
2022/06/17 01:13:55;;;;;;;4.97;4.57;;;15.20;99.90;;;;;;4991873;28;20042;-81
2022/06/17 01:16:29;;;;;;;6.88;4.00;;;15.20;99.90;;;;;;4976026;28;20054;-87
2022/06/17 01:19:41;;;;;;;4.90;4.50;;;15.30;99.90;;;;;;4975522;28;20077;-87
2022/06/17 01:22:27;;;;;;;6.30;5.53;;;15.50;99.90;;;;;;4975291;28;20050;-86
2022/06/17 01:24:59;;;;;;;9.20;4.85;;;15.50;99.90;;;;;;4976376;28;20054;-86
2022/06/17 01:27:33;;;;;;;6.00;4.40;;;15.50;99.90;;;;;;4949003;28;20051;-86
2022/06/17 01:30:02;;;;;;;8.18;4.30;;;15.30;99.90;;;;;;4936099;29;20059;-87
2022/06/17 01:32:37;;;;;;;4.38;3.97;;;15.20;99.90;;;;;;4921518;29;20051;-87
2022/06/17 01:35:06;;;;;;;4.63;4.18;;;15.00;99.90;;;;;;4937037;29;20488;-86
2022/06/17 01:37:34;;;;;;;6.47;4.55;;;14.90;99.90;;;;;;4936998;29;20055;-86
2022/06/17 01:40:03;;;;;;;4.28;3.53;;;14.80;99.90;;;;;;4952596;28;20047;-87
2022/06/17 01:42:33;;;;;;;12.95;4.80;;;14.80;99.90;;;;;;4968115;28;20660;-87
2022/06/17 01:45:01;;;;;;;5.00;4.35;;;14.90;99.90;;;;;;4936997;29;20063;-88
2022/06/17 01:47:31;;;;;;;6.05;4.78;;;14.90;99.90;;;;;;4952645;28;20047;-87
2022/06/17 01:50:06;;;;;;;4.50;4.18;;;14.70;99.90;;;;;;4936479;29;20504;-87
2022/06/17 01:52:39;;;;;;;9.65;4.55;;;14.80;99.90;;;;;;4937108;29;20051;-87
2022/06/17 01:55:24;;;;;;;4.07;3.78;;;15.00;99.90;;;;;;4945298;28;20396;-86
2022/06/17 01:58:01;;;;;;;5.13;4.72;;;14.90;99.90;;;;;;4951667;28;20070;-87
2022/06/17 02:00:33;;;;;;;6.65;4.40;;;14.70;99.90;;;;;;4936650;29;20054;-86
2022/06/17 02:03:08;;;;;;;6.55;5.68;;;14.60;99.90;;;;;;4952529;28;20050;-86
2022/06/17 02:05:40;;;;;;;5.72;4.70;;;14.60;99.90;;;;;;4921358;29;20384;-87
2022/06/17 02:08:09;;;;;;;6.43;5.68;;;14.50;99.90;;;;;;4951841;28;20404;-87
2022/06/17 02:10:40;;;;;;;5.57;4.70;;;14.50;99.90;;;;;;4936452;28;20042;-86
2022/06/17 02:13:10;;;;;;;4.68;4.38;;;14.50;99.90;;;;;;4971439;28;20049;-87
2022/06/17 02:16:01;;;;;;;6.03;4.65;;;14.50;99.90;;;;;;4958198;28;20046;-85
2022/06/17 02:18:42;;;;;;;6.10;5.38;;;14.40;99.90;;;;;;4924110;28;20043;-86
2022/06/17 02:21:16;;;;;;;18.02;7.55;;;14.40;99.90;;;;;;4939657;28;20054;-86
2022/06/17 02:23:45;;;;;;;5.72;4.40;;;14.40;99.90;;;;;;4971329;28;20400;-87
2022/06/17 02:26:15;;;;;;;6.63;6.03;;;14.40;99.90;;;;;;4954877;28;20511;-86
2022/06/17 02:28:44;;;;;;;5.00;4.60;;;14.30;99.90;;;;;;4971117;28;20050;-86
2022/06/17 02:31:14;;;;;;;5.72;5.22;;;14.40;99.90;;;;;;4955186;28;20046;-87
2022/06/17 02:33:49;;;;;;;6.57;5.95;;;14.40;99.90;;;;;;4939668;28;20042;-87
2022/06/17 02:36:41;;;;;;;7.20;5.68;;;14.40;99.90;;;;;;4938599;28;20054;-87
2022/06/17 02:39:12;;;;;;;5.70;5.13;;;14.40;99.90;;;;;;4952556;28;20055;-86
2022/06/17 02:41:45;;;;;;;6.35;4.88;;;14.40;99.90;;;;;;4983620;28;20469;-87
2022/06/17 02:44:23;;;;;;;4.85;4.55;;;14.40;99.90;;;;;;4976750;28;20069;-86
2022/06/17 02:46:56;;;;;;;14.00;6.55;;;14.40;99.90;;;;;;4967735;28;20047;-87
2022/06/17 02:49:27;;;;;;;7.63;6.18;;;14.40;99.90;;;;;;4951748;29;20386;-86
2022/06/17 02:51:57;;;;;;;6.00;5.38;;;14.40;99.90;;;;;;4951570;28;20421;-87
2022/06/17 02:54:37;;;;;;;5.43;4.60;;;14.40;99.90;;;;;;4967448;28;20051;-85
2022/06/17 02:57:21;;;;;;;5.10;4.70;;;14.40;99.90;;;;;;4966914;28;20054;-87
2022/06/17 03:00:12;;;;;;;5.95;5.38;;;14.50;99.90;;;;;;4967345;28;20050;-87
2022/06/17 03:02:54;;;;;;;6.50;5.88;;;14.50;99.90;;;;;;4935756;29;20054;-87
2022/06/17 03:05:29;;;;;;;7.47;6.03;;;14.50;99.90;;;;;;4951468;29;20537;-80
2022/06/17 03:07:59;;;;;;;6.82;4.68;;;14.50;99.90;;;;;;4950691;28;20047;-80
2022/06/17 03:10:40;;;;;;;5.10;4.63;;;14.50;99.90;;;;;;4965863;28;20071;-81
2022/06/17 03:13:39;;;;;;;6.53;4.28;;;14.50;99.90;;;;;;4954517;28;20054;-80
2022/06/17 03:16:11;;;;;;;6.75;5.40;;;14.60;99.90;;;;;;4938676;28;20043;-80
2022/06/17 03:18:40;;;;;;;5.70;4.72;;;14.60;99.90;;;;;;4953753;28;20066;-80
2022/06/17 03:21:08;;;;;;;4.75;4.28;;;14.70;99.90;;;;;;4954679;28;20416;-80
2022/06/17 03:23:41;;;;;;;5.43;4.35;;;14.80;99.90;;;;;;4922447;28;20042;-80
2022/06/17 03:26:14;;;;;;;5.60;4.90;;;14.80;99.90;;;;;;4930807;28;20493;-81
2022/06/17 03:28:45;;;;;;;9.77;6.32;;;14.90;99.90;;;;;;4950681;29;20082;-80
2022/06/17 03:31:23;;;;;;;4.80;4.40;;;14.80;99.90;;;;;;4968443;28;20547;-80
2022/06/17 03:33:58;;;;;;;5.15;4.65;;;14.80;99.90;;;;;;4938372;28;20051;-81
2022/06/17 03:36:47;;;;;;;5.32;4.10;;;14.80;99.90;;;;;;4954751;28;20492;-80
2022/06/17 03:39:36;;;;;;;5.15;4.40;;;14.80;99.90;;;;;;4938161;28;20054;-80
2022/06/17 03:42:19;;;;;;;4.90;4.50;;;14.80;99.90;;;;;;4953497;28;20043;-80
2022/06/17 03:45:09;;;;;;;5.85;4.35;;;14.80;99.90;;;;;;4938809;28;20050;-80
2022/06/17 03:48:05;;;;;;;5.32;4.85;;;14.70;99.90;;;;;;4938002;28;20404;-80
2022/06/17 03:50:38;;;;;;;5.93;4.95;;;14.70;99.90;;;;;;4938716;28;20051;-80
2022/06/17 03:53:27;;;;;;;5.25;4.75;;;14.60;99.90;;;;;;4939297;28;20074;-80
2022/06/17 03:56:03;;;;;;;6.18;5.57;;;14.50;99.90;;;;;;4941383;28;20043;-80
2022/06/17 03:58:38;;;;;;;5.07;4.57;;;14.50;99.90;;;;;;4940902;28;20507;-80
2022/06/17 04:01:18;;;;;;;6.07;5.57;;;14.50;99.90;;;;;;4941938;28;20507;-81
2022/06/17 04:04:00;;;;;;;5.40;4.90;;;14.50;99.90;;;;;;4957734;28;20043;-80
2022/06/17 04:06:38;;;;;;;10.35;6.97;;;14.50;99.90;;;;;;4945676;28;20039;-88
2022/06/17 04:09:20;;;;;;;8.27;5.55;;;14.50;99.90;;;;;;4950763;28;20657;-87
2022/06/17 04:12:02;;;;;;;12.15;4.68;;;14.50;99.90;;;;;;4957202;28;20055;-88
2022/06/17 04:15:13;;;;;;;6.40;4.72;;;14.50;99.90;;;;;;4926561;28;20053;-88
2022/06/17 04:17:51;;;;;;;6.28;5.15;;;14.50;99.90;;;;;;4938960;28;20050;-87
2022/06/17 04:20:34;;;;;;;4.82;4.40;;;14.60;99.90;;;;;;4941439;28;20412;-87
2022/06/17 04:23:13;;;;;;;9.63;5.45;;;14.60;99.90;;;;;;4941377;28;20051;-87
2022/06/17 04:26:16;;;;;;;5.68;4.50;;;14.70;99.90;;;;;;4960219;28;20066;-89
2022/06/17 04:28:58;;;;;;;4.90;4.50;;;14.70;99.90;;;;;;4941988;28;20053;-81
2022/06/17 04:31:32;;;;;;;8.90;5.15;;;14.80;99.90;;;;;;4974415;28;20058;-89
2022/06/17 04:34:14;;;;;;;4.57;4.18;;;14.80;99.90;;;;;;4943209;28;20077;-88
2022/06/17 04:36:55;;;;;;;9.88;5.28;;;14.90;99.90;;;;;;4941001;28;20403;-81
2022/06/17 04:39:30;;;;;;;5.00;4.60;;;14.90;99.90;;;;;;4936388;29;20058;-81
2022/06/17 04:42:30;;;;;;;9.70;6.57;;;14.90;99.90;;;;;;4927848;28;20058;-81
2022/06/17 04:44:59;;;;;;;4.88;4.38;;;15.00;99.90;;;;;;4941592;28;20058;-81
2022/06/17 04:47:29;;;;;;;6.97;5.10;;;15.10;99.90;;;;;;4940981;28;20057;-81
2022/06/17 04:50:12;;;;;;;5.53;5.05;;;15.10;99.90;;;;;;4940768;28;20058;-81
2022/06/17 04:52:44;;;;;;;4.80;4.40;;;15.20;99.90;;;;;;4957179;28;20423;-81
2022/06/17 04:55:38;;;;;;;4.78;4.20;;;15.20;99.90;;;;;;4958352;28;20051;-81
2022/06/17 04:58:17;;;;;;;6.47;4.50;;;15.30;99.90;;;;;;4973158;28;20472;-81
2022/06/17 05:00:54;;;;;;;9.98;5.53;;;15.30;99.90;;;;;;4940962;28;20061;-81
2022/06/17 05:04:01;;;;;;;7.53;5.63;;;15.30;99.90;;;;;;4964645;28;20055;-89
2022/06/17 05:06:46;;;;;;;4.47;4.13;;;15.40;99.90;;;;;;4943544;28;20050;-89
2022/06/17 05:09:23;;;;;;;4.85;4.45;;;15.40;99.90;;;;;;4953923;29;20100;-88
2022/06/17 05:12:00;;;;;;;5.03;4.40;;;15.40;99.90;;;;;;4940491;28;20484;-89
2022/06/17 05:14:37;;;;;;;4.18;3.78;;;15.50;99.90;;;;;;4944016;28;20472;-89
2022/06/17 05:17:05;;;;;;;6.93;4.85;;;15.60;99.90;;;;;;4955090;28;20054;-83
2022/06/17 05:19:34;;;;;;;6.78;4.70;;;15.70;99.90;;;;;;4971969;28;20078;-85
2022/06/17 05:22:04;;;;;;;4.55;4.15;;;15.80;99.90;;;;;;4972295;28;20051;-85
2022/06/17 05:24:32;;;;;;;;;;;15.90;99.90;;;;;;4957320;28;20533;-83
2022/06/17 05:27:00;;;;;;;5.22;4.90;;;15.90;99.90;;;;;;4955284;28;19922;-83
2022/06/17 05:29:29;;;;;;;4.55;4.15;;;16.00;99.90;;;;;;4972541;28;20038;-82
2022/06/17 05:32:03;;;;;;;4.75;4.35;;;16.10;99.90;;;;;;4972340;28;20124;-82
2022/06/17 05:34:49;;;;;;;4.68;4.25;;;16.20;99.90;;;;;;4971660;28;20058;-86
2022/06/17 05:37:17;;;;;;;4.68;4.28;;;16.30;99.90;;;;;;4956742;28;20050;-86
2022/06/17 05:39:51;;;;;;;6.20;4.90;;;16.50;99.90;;;;;;4955825;28;20050;-86
2022/06/17 05:42:19;;;;;;;6.05;4.70;;;16.70;99.90;;;;;;4939809;28;20511;-86
2022/06/17 05:44:55;;;;;;;4.07;3.78;;;16.60;99.90;;;;;;4972443;28;20404;-86
2022/06/17 05:47:42;;;;;;;3.97;3.65;;;16.70;99.90;;;;;;4971364;28;20385;-85
2022/06/17 05:50:23;;;;;;;3.90;3.60;;;16.70;99.90;;;;;;4959031;28;20041;-92
2022/06/17 05:53:13;;;;;;;4.68;4.25;;;16.80;99.90;;;;;;4945013;28;20062;-91
2022/06/17 05:55:50;;;;;;;4.97;4.57;;;16.80;99.90;;;;;;4928429;28;20053;-91
2022/06/17 05:58:21;;;;;;;4.30;4.00;;;16.80;99.90;;;;;;4958955;28;20482;-91
2022/06/17 06:00:51;;;;;;;10.68;5.10;;;16.90;99.90;;;;;;4956295;28;20061;-86
2022/06/17 06:03:25;;;;;;;5.60;5.05;;;17.00;99.90;;;;;;4938954;28;20058;-86
2022/06/17 06:05:57;;;;;;;4.15;3.15;;;17.10;99.90;;;;;;4967373;28;20047;-86
2022/06/17 06:08:25;;;;;;;4.32;3.65;;;17.10;99.90;;;;;;4935968;29;20047;-86
2022/06/17 06:10:54;;;;;;;3.63;3.35;;;17.20;99.90;;;;;;4953969;28;20054;-85
2022/06/17 06:13:26;;;;;;;4.32;3.72;;;17.20;99.90;;;;;;4939280;28;20051;-86
2022/06/17 06:16:03;;;;;;;7.35;4.13;;;17.30;99.90;;;;;;4938305;28;20046;-87
2022/06/17 06:18:41;;;;;;;4.50;4.18;;;17.30;99.90;;;;;;4923810;28;20112;-81
2022/06/17 06:21:14;;;;;;;5.32;4.65;;;17.40;99.90;;;;;;4973236;28;20043;-80
2022/06/17 06:23:42;;;;;;;4.97;4.50;;;17.50;99.90;;;;;;4955013;28;20058;-81
2022/06/17 06:26:14;;;;;;;;;;;17.60;99.90;;;;;;4923865;28;20396;-81
2022/06/17 06:28:44;;;;;;;;;;;17.60;99.90;;;;;;4971697;28;19944;-80
2022/06/17 06:31:36;;;;;;;4.43;3.30;;;17.70;99.90;;;;;;4955048;28;19926;-81
2022/06/17 06:34:10;;;;;;;5.60;4.13;;;17.70;99.90;;;;;;4970944;28;20419;-81
2022/06/17 06:36:43;;;;;;;4.45;4.15;;;17.80;99.90;;;;;;4955523;28;20050;-80
2022/06/17 06:39:13;;;;;;;4.38;3.28;;;17.90;99.90;;;;;;4964996;28;20079;-81
2022/06/17 06:41:41;;;;;;;4.35;4.00;;;17.90;99.90;;;;;;4970677;28;20042;-80
2022/06/17 06:44:09;;;;;;;3.85;3.13;;;18.00;99.90;;;;;;4954748;28;20046;-79
2022/06/17 06:46:52;;;;;;;5.70;4.18;;;18.10;99.90;;;;;;4972166;28;20054;-79
2022/06/17 06:49:41;;;;;;;3.45;3.22;;;18.30;99.90;;;;;;4971918;28;20058;-81
2022/06/17 06:52:08;;;;;;;5.45;4.07;;;18.30;99.90;;;;;;4954170;28;20595;-81
2022/06/17 06:54:37;;;;;;;5.40;4.28;;;18.40;99.90;;;;;;4970686;28;20050;-81
2022/06/17 06:57:08;;;;;;;4.88;4.43;;;18.50;99.90;;;;;;4971816;28;20054;-81
2022/06/17 07:00:00;;;;;;;5.25;4.75;;;18.60;99.90;;;;;;4971362;28;20058;-79
2022/06/17 07:02:30;;;;;;;4.38;4.07;;;18.70;99.90;;;;;;4970166;28;20050;-79
2022/06/17 07:04:58;;;;;;;5.00;4.53;;;18.70;99.90;;;;;;4971141;28;20061;-79
2022/06/17 07:07:26;;;;;;;4.68;3.83;;;18.80;99.90;;;;;;4971607;28;20534;-80
2022/06/17 07:09:54;;;;;;;6.43;5.88;;;18.80;99.90;;;;;;4971714;28;20119;-80
2022/06/17 07:23:11;;;;;;;5.03;4.63;;;19.10;99.90;;;;;;4950357;28;20047;-81
2022/06/17 07:26:35;;;;;;;7.43;3.50;;;19.20;99.90;;;;;;4951476;28;20499;-80
2022/06/17 07:34:44;;;;;;;8.77;3.92;;;19.50;99.90;;;;;;4953915;29;20031;-80
2022/06/17 07:40:58;;;;;;;3.90;3.60;;;19.80;99.90;;;;;;4955037;29;20047;-79
2022/06/17 07:43:26;;;;;;;3.63;3.28;;;19.80;99.90;;;;;;4953937;29;20051;-80
2022/06/17 07:45:54;;;;;;;5.53;4.13;;;19.90;99.90;;;;;;4953484;29;20486;-80
2022/06/17 07:48:22;;;;;;;5.60;4.20;;;19.90;99.90;;;;;;4937198;29;20520;-81
2022/06/17 07:50:50;;;;;;;3.97;3.67;;;19.90;99.90;;;;;;4936917;29;20046;-79
2022/06/17 07:53:19;;;;;;;4.97;4.20;;;20.00;99.90;;;;;;4953634;29;20066;-79
2022/06/17 07:55:47;;;;;;;5.38;3.95;;;20.00;99.90;;;;;;4954198;29;20050;-79
2022/06/17 07:58:16;;;;;;;7.88;4.32;;;20.10;99.90;;;;;;4952338;28;20054;-79
2022/06/17 08:00:46;;;;;;;3.75;3.50;;;20.10;99.90;;;;;;4954838;29;20051;-80
2022/06/17 08:03:16;;;;;;;4.85;4.25;;;20.10;99.90;;;;;;4954669;29;20047;-80
2022/06/17 08:05:49;;;;;;;7.43;3.83;;;20.20;99.90;;;;;;4955189;29;20052;-89
2022/06/17 08:08:21;;;;;;;4.18;3.80;;;20.30;99.90;;;;;;4933149;29;20055;-87
2022/06/17 08:10:55;;;;;;;4.00;3.70;;;20.30;99.90;;;;;;4919962;29;20039;-86
2022/06/17 08:14:43;;;;;;;8.13;3.13;;;20.40;99.90;;;;;;4945347;28;20042;-85
2022/06/17 08:17:13;;;;;;;5.15;4.65;;;20.70;99.90;;;;;;4944684;29;20067;-85
2022/06/17 08:19:43;;;;;;;4.60;4.20;;;21.00;99.90;;;;;;4888560;28;1244628;-85
2022/06/17 08:22:11;;;;;;;7.55;3.97;;;21.20;99.90;;;;;;4973930;28;20042;-79
2022/06/17 08:24:40;;;;;;;4.68;4.15;;;21.10;99.90;;;;;;4941743;28;20051;-79
2022/06/17 08:27:14;;;;;;;4.32;3.92;;;21.00;99.90;;;;;;4973977;28;20069;-79
2022/06/17 08:29:43;;;;;;;3.10;2.85;;;21.00;99.90;;;;;;4941620;28;20071;-78
2022/06/17 08:35:04;;;;;;;9.93;3.60;;;20.90;99.90;;;;;;4974613;28;20385;-79
2022/06/17 08:37:33;;;;;;;4.90;4.15;;;21.00;99.90;;;;;;4940646;28;20047;-79
2022/06/17 08:40:08;;;;;;;7.80;4.45;;;21.10;99.90;;;;;;4936880;29;20404;-79
2022/06/17 08:42:55;;;;;;;8.25;3.95;;;21.10;99.90;;;;;;4936460;29;20505;-79
2022/06/17 08:46:18;;;;;;;3.33;2.92;;;21.00;99.90;;;;;;4920932;29;20066;-80
2022/06/17 08:49:22;;;;;;;6.38;4.55;;;21.10;99.90;;;;;;4874672;29;20045;-83
2022/06/17 08:52:12;;;;;;;6.45;3.30;;;21.20;99.90;;;;;;4842381;29;20040;-80
2022/06/17 08:55:03;;;;;;;4.00;3.70;;;21.30;99.90;;;;;;4927521;29;20043;-79
2022/06/17 08:57:53;;;;;;;3.30;2.85;;;21.20;99.90;;;;;;4950293;29;20074;-81
2022/06/17 09:00:42;;;;;;;3.97;3.28;;;21.10;99.90;;;;;;4861588;29;20051;-80
2022/06/17 09:03:46;;;;;;;3.50;3.22;;;21.10;99.90;;;;;;4878981;29;20051;-79
2022/06/17 09:06:33;;;;;;;3.45;2.85;;;21.10;99.90;;;;;;4862773;29;20051;-81
2022/06/17 09:09:06;;;;;;;4.13;3.83;;;21.30;99.90;;;;;;4894969;29;20053;-81
2022/06/17 09:33:24;;;;;;;3.42;3.13;;;21.50;99.90;;;;;;4977062;28;20054;-82
2022/06/17 09:37:56;;;;;;;5.25;3.38;;;21.60;99.90;;;;;;4962083;28;20035;-85
2022/06/17 09:52:07;;;;;;;3.35;3.05;;;21.80;99.90;;;;;;4971073;28;20035;-82
2022/06/17 09:56:43;;;;;;;6.68;2.80;;;21.50;99.80;;;;;;4971371;28;20046;-81
2022/06/17 10:01:08;;;;;;;3.30;3.00;;;21.50;99.90;;;;;;4999620;28;20046;-79
2022/06/17 10:05:09;;;;;;;4.65;3.35;;;21.60;99.00;;;;;;4974864;28;20042;-82
2022/06/17 10:08:27;;;;;;;5.45;3.00;;;21.80;99.90;;;;;;4969814;28;20074;-80
2022/06/17 10:11:19;;;;;;;2.85;2.65;;;21.90;99.90;;;;;;4970304;28;20388;-83
2022/06/17 10:14:25;;;;;;;4.97;2.50;;;22.00;99.90;;;;;;4972530;28;20051;-82
2022/06/17 10:20:38;;;;;;;4.78;3.08;;;21.90;99.90;;;;;;4969147;28;20097;-78
2022/06/17 10:52:50;;;;;;;9.30;2.78;;;21.80;99.40;;;;;;4952167;28;20035;-80
2022/06/17 10:59:33;;;;;;;3.40;2.60;;;21.80;98.40;;;;;;4945415;28;20046;-83
2022/06/17 11:18:17;;;;;;;3.22;2.50;;;22.20;99.00;;;;;;4963131;28;20023;-85
2022/06/17 11:20:58;;;;;;;12.75;3.65;;;22.30;99.90;;;;;;4993538;28;20042;-86
2022/06/17 11:48:05;;;;;;;3.08;2.13;;;22.20;95.20;;;;;;4944573;28;20042;-87
2022/06/17 11:51:29;;;;;;;2.65;2.42;;;22.40;98.00;;;;;;4947466;28;20035;-81
2022/06/17 11:54:05;;;;;;;3.80;1.95;;;22.40;97.80;;;;;;4951676;28;20489;-86
2022/06/17 11:56:42;;;;;;;2.35;2.15;;;22.60;98.00;;;;;;4944228;28;20050;-83
2022/06/17 11:59:23;;;;;;;3.33;2.50;;;22.70;96.90;;;;;;4949398;28;20051;-85
2022/06/17 12:01:54;;;;;;;2.90;2.70;;;22.70;98.70;;;;;;4934344;28;20627;-82
2022/06/17 12:33:25;;;;;;;2.20;2.00;;;23.30;97.00;;;;;;4942167;29;20066;-85
2022/06/17 12:36:03;;;;;;;13.90;3.20;;;23.20;97.00;;;;;;4916578;29;20055;-85
2022/06/17 12:38:39;;;;;;;2.55;2.35;;;23.20;97.60;;;;;;4960046;28;20081;-86
2022/06/17 12:41:33;;;;;;;8.02;2.42;;;23.10;97.20;;;;;;4956177;28;20412;-85
2022/06/17 12:44:15;;;;;;;8.05;2.55;;;23.00;98.60;;;;;;4971861;28;20058;-84
2022/06/17 12:47:06;;;;;;;3.88;1.83;;;23.10;96.60;;;;;;4972204;28;20042;-85
2022/06/17 12:55:34;;;;;;;3.65;2.05;;;23.10;94.90;;;;;;4988189;28;20059;-85
2022/06/17 12:58:12;;;;;;;2.28;2.17;;;23.30;99.10;;;;;;4955156;28;20055;-85
2022/06/17 13:00:44;;;;;;;2.92;1.85;;;23.40;94.00;;;;;;4956411;28;20058;-85
2022/06/17 13:03:30;;;;;;;1.48;1.42;;;23.30;96.00;;;;;;4949575;28;20054;-84
2022/06/17 13:06:28;;;;;;;3.83;2.00;;;23.40;95.30;;;;;;4974298;28;20047;-84
2022/06/17 13:09:19;;;;;;;2.05;1.88;;;23.50;98.00;;;;;;4953054;28;20046;-85
2022/06/17 13:12:25;;;;;;;6.00;3.00;;;23.40;96.40;;;;;;4970922;28;20039;-86
2022/06/17 13:15:05;;;;;;;4.88;1.90;;;23.40;98.00;;;;;;4968710;28;20043;-85
2022/06/17 13:17:45;;;;;;;1.65;1.55;;;23.40;96.90;;;;;;4971560;28;20057;-85
2022/06/17 13:20:37;;;;;;;2.05;1.85;;;23.50;97.30;;;;;;4971676;28;20058;-86
2022/06/17 13:23:13;;;;;;;2.53;1.90;;;23.40;95.10;;;;;;4971927;28;20478;-81
2022/06/17 13:25:55;;;;;;;2.10;2.00;;;23.50;93.20;;;;;;4970391;28;20047;-85
2022/06/17 13:28:46;;;;;;;2.15;2.05;;;23.50;94.90;;;;;;4985578;28;20047;-85
2022/06/17 13:31:35;;;;;;;2.28;2.08;;;23.60;93.20;;;;;;4987825;28;20043;-85
2022/06/17 13:34:10;;;;;;;3.72;2.08;;;23.60;94.10;;;;;;4954892;28;20070;-84
2022/06/17 13:37:06;;;;;;;2.97;2.00;;;23.80;94.70;;;;;;4955434;28;20543;-85
2022/06/17 13:39:48;;;;;;;1.33;1.23;;;24.00;93.90;;;;;;4971210;28;20054;-85
2022/06/17 13:42:18;;;;;;;2.15;1.95;;;23.90;93.00;;;;;;4954594;28;20063;-85
2022/06/17 13:44:47;;;;;;;3.58;1.83;;;23.80;92.00;;;;;;4955478;28;20058;-85
2022/06/17 13:47:37;;;;;;;4.43;3.10;;;23.60;94.00;;;;;;4971402;28;20396;-85
2022/06/17 13:50:37;;;;;;;1.83;1.73;;;23.70;93.10;;;;;;4939377;28;20078;-84
2022/06/17 13:53:24;;;;;;;3.40;2.15;;;23.60;94.30;;;;;;4971578;28;20526;-84
2022/06/17 13:56:09;;;;;;;2.65;2.45;;;23.80;96.00;;;;;;4955793;28;20050;-87
2022/06/17 13:58:49;;;;;;;3.50;1.98;;;24.00;95.10;;;;;;4936755;29;20043;-85
2022/06/17 14:01:23;;;;;;;1.92;1.83;;;24.00;92.60;;;;;;4951081;28;20054;-85
2022/06/17 14:03:51;;;;;;;2.55;2.35;;;24.10;93.20;;;;;;4988703;28;20047;-84
2022/06/17 14:06:26;;;;;;;1.38;1.35;;;24.20;94.00;;;;;;4996465;28;20058;-84
2022/06/17 14:09:06;;;;;;;2.85;1.90;;;24.30;94.10;;;;;;4970669;28;20053;-83
2022/06/17 14:11:50;;;;;;;6.18;2.20;;;24.30;94.50;;;;;;4944141;28;20050;-84
2022/06/17 14:14:18;;;;;;;2.28;1.65;;;24.10;96.40;;;;;;4971751;28;20034;-85
2022/06/17 14:17:14;;;;;;;3.47;2.20;;;23.90;93.70;;;;;;4987368;28;20058;-83
2022/06/17 14:20:12;;;;;;;2.08;1.88;;;23.80;92.10;;;;;;4938651;28;20528;-87
2022/06/17 14:23:03;;;;;;;2.47;2.05;;;23.90;92.50;;;;;;4954348;28;20053;-86
2022/06/17 14:25:50;;;;;;;1.85;1.75;;;24.00;91.90;;;;;;4970879;28;20059;-85
2022/06/17 14:28:35;;;;;;;1.83;1.73;;;24.20;93.10;;;;;;4970346;28;20050;-86
2022/06/17 14:31:15;;;;;;;2.70;1.73;;;24.30;92.40;;;;;;4989834;28;20053;-84
2022/06/17 14:33:54;;;;;;;1.88;1.77;;;24.10;91.50;;;;;;4974233;28;20053;-85
2022/06/17 14:36:40;;;;;;;1.63;1.52;;;24.10;92.60;;;;;;4972403;28;20050;-85
2022/06/17 14:39:44;;;;;;;6.28;1.75;;;24.10;91.10;;;;;;4942577;28;20057;-84
2022/06/17 14:42:18;;;;;;;1.92;1.70;;;24.10;91.50;;;;;;4946907;28;20054;-84
2022/06/17 14:44:52;;;;;;;4.55;1.55;;;24.10;91.40;;;;;;4986568;28;20055;-83
2022/06/17 14:47:29;;;;;;;3.95;1.95;;;24.10;92.30;;;;;;4971526;28;20047;-83
2022/06/17 14:50:16;;;;;;;7.15;1.73;;;24.30;93.30;;;;;;4970156;28;20043;-82
2022/06/17 14:52:56;;;;;;;2.25;2.15;;;24.20;90.90;;;;;;4971848;28;20050;-86
2022/06/17 14:55:29;;;;;;;2.70;1.60;;;24.20;91.90;;;;;;4969597;28;20047;-85
2022/06/17 14:58:01;;;;;;;2.17;1.83;;;24.20;92.20;;;;;;4968634;28;20057;-87
2022/06/17 15:00:42;;;;;;;2.15;1.95;;;24.40;92.70;;;;;;4970901;28;20054;-86
2022/06/17 15:03:41;;;;;;;3.17;2.45;;;24.60;93.00;;;;;;4972252;28;20058;-82
2022/06/17 15:06:25;;;;;;;1.50;1.40;;;24.60;88.50;;;;;;4963169;28;20047;-84
2022/06/17 15:08:57;;;;;;;4.43;1.95;;;24.40;90.50;;;;;;4954782;28;20051;-86
2022/06/17 15:11:29;;;;;;;1.00;0.98;;;24.30;89.40;;;;;;4970819;28;20043;-86
2022/06/17 15:14:14;;;;;;;4.45;1.75;;;24.40;90.30;;;;;;4946319;28;20054;-86
2022/06/17 15:16:49;;;;;;;2.20;1.52;;;24.40;86.10;;;;;;4986238;28;20039;-87
2022/06/17 15:19:34;;;;;;;5.60;2.05;;;24.40;87.30;;;;;;4969262;28;20515;-86
2022/06/17 15:22:27;;;;;;;4.50;2.42;;;24.40;90.60;;;;;;4969564;28;20051;-86
2022/06/17 15:25:08;;;;;;;2.03;1.88;;;24.40;90.70;;;;;;4986325;28;20061;-85
2022/06/17 15:28:01;;;;;;;1.77;1.67;;;24.60;90.50;;;;;;4964283;28;20081;-87
2022/06/17 15:30:51;;;;;;;1.60;1.50;;;24.60;88.50;;;;;;4953336;28;20071;-87
2022/06/17 15:33:29;;;;;;;2.47;1.67;;;24.60;88.90;;;;;;4970230;28;20051;-88
2022/06/17 15:37:04;;;;;;;1.50;1.40;;;24.60;90.60;;;;;;4969881;28;20047;-86
2022/06/17 15:39:43;;;;;;;3.45;1.95;;;24.60;88.60;;;;;;4985840;28;20507;-87
2022/06/17 15:42:26;;;;;;;2.07;1.97;;;24.50;90.30;;;;;;4952967;28;20050;-87
2022/06/17 15:45:09;;;;;;;2.28;2.03;;;24.50;89.80;;;;;;4986184;28;20492;-87
2022/06/17 15:48:03;;;;;;;2.20;2.08;;;24.60;90.30;;;;;;4984970;28;20055;-88
2022/06/17 15:50:52;;;;;;;2.40;1.65;;;24.60;90.90;;;;;;4972491;28;20404;-87
2022/06/17 15:53:45;;;;;;;2.45;2.25;;;24.70;90.80;;;;;;4957553;28;20054;-89
2022/06/17 15:56:17;;;;;;;2.88;1.77;;;24.70;90.90;;;;;;4955918;28;20047;-89
2022/06/17 15:58:47;;;;;;;1.80;1.50;;;24.60;91.40;;;;;;4956327;28;20492;-84
2022/06/17 16:01:18;;;;;;;1.85;1.75;;;24.60;92.10;;;;;;4942016;28;20050;-87
2022/06/17 16:03:59;;;;;;;3.03;2.03;;;24.70;88.90;;;;;;4940376;28;20051;-82
2022/06/17 16:06:31;;;;;;;2.75;2.20;;;24.70;89.80;;;;;;4955060;28;20047;-87
2022/06/17 16:09:29;;;;;;;1.83;1.73;;;24.60;90.10;;;;;;4956984;28;20054;-87
2022/06/17 16:12:21;;;;;;;2.40;1.77;;;24.70;91.90;;;;;;4988012;28;20050;-89
2022/06/17 16:14:59;;;;;;;2.33;1.52;;;24.80;90.80;;;;;;4973220;28;20078;-86
2022/06/17 16:17:36;;;;;;;2.15;2.05;;;24.90;92.20;;;;;;4973379;28;20086;-87
2022/06/17 16:20:25;;;;;;;2.22;1.88;;;24.90;91.70;;;;;;4973074;28;20043;-87
2022/06/17 16:22:53;;;;;;;2.50;1.90;;;24.90;94.00;;;;;;4956616;28;20039;-87
2022/06/17 16:25:37;;;;;;;1.55;1.45;;;24.90;92.50;;;;;;4956979;28;20055;-88
2022/06/17 16:28:16;;;;;;;5.60;2.60;;;25.00;93.10;;;;;;4939798;28;20042;-88
2022/06/17 16:31:50;;;;;;;3.38;1.85;;;24.90;89.90;;;;;;4989058;28;20488;-87
2022/06/17 16:34:18;;;;;;;3.90;2.28;;;24.70;88.30;;;;;;4969394;28;20554;-83
2022/06/17 16:37:02;;;;;;;1.85;1.75;;;24.60;90.00;;;;;;4972861;28;20057;-84
2022/06/17 16:39:39;;;;;;;4.05;1.88;;;24.70;90.50;;;;;;4971881;28;20046;-82
2022/06/17 16:45:24;;;;;;;8.05;1.63;;;24.80;91.60;;;;;;4974245;28;20051;-84
2022/06/17 16:47:55;;;;;;;4.38;1.48;;;24.80;90.90;;;;;;4951503;28;20069;-85
2022/06/17 16:50:25;;;;;;;1.85;1.75;;;24.80;90.30;;;;;;4981982;28;20395;-82
2022/06/17 16:53:01;;;;;;;2.42;1.70;;;24.70;91.10;;;;;;4989055;28;20061;-82